الصفحة الرئيسية
METAR-TAF:

METAR-TAF

مطار :

يلونايف, الأقاليم الشمالية الغربية, كندا

دائرة عرض: 62-28N, خط طول: 114-27W, ارتفاع: 205 متر

مراقبة الطقس الحالي

تاريخ ووقت الإصدار 30 دقيقة قبل الساعة 11:00UTC
ريح 3 عقدة من الشرق
درجة الحرارة -15°درجة مئوية
الرطوبة 85%
ضغط 1008 hPa
الرؤية: 24.1 كم
سماء صافية

METAR: CYZF 161100Z 09003KT 15SM SKC M15/M17 A2978 RMK SLP108

زمن: 04:30 (11:30 UTC)

توقعات

تاريخ ووقت الإصدار 5ساعات و 51 دقيقة قبل الساعة 05:39UTC
التوقعات صالحة من16 الساعة 06 UTC إلى 17 الساعة 06 UTC
ريح 6 عقدة من الجنوب
الرؤية: 10 كم
غيوم قليلة على ارتفاع 24000 قدم
أصبح
من 16 الساعة 10 UTC إلى 16 الساعة 12 UTC
ريح 5 عقدة من الشرق

TAF: CYZF 160539Z 1606/1706 18006KT P6SM FEW240 BECMG 1610/1612 10005KT RMK NXT FCST BY 161200Z

أرصاد الطقس والتوقعات من أكثر من 4000 مطار (تقارير الطقس للمطار METAR والتنبؤ بالطقس بالمطارTAF).

المحطات المتاحة هي النقط الصفراء والحمراء على الخريطة.

حرك المؤشر فوق النقطة لمعرفة اسم المحطة.

ثم انقر لمعرفة أرصاد وتوقعات الطقس.

لتغيير الخارطة: اضغط على الأزرار الخضراء مع رمز الصليب الأسود للتكبير. على الزر الأخضر مع شرطة للتصغير، أو على الأسهم الخضراء للخرائط المجاورة.


METAR-TAF: